Terminal Aerodrome Forecast
Issued by NWS Corpus Christi, TX

Home | Current Version | Previous Version | Text Only | Print | Product List | Glossary On
Versions: 1 2 3 4 5 6 7 8 9 10 11 12 13 14 15
000
FTUS44 KCRP 230500
TAFCRP
TAF
KCRP 230539Z 2306/2406 16005KT P6SM FEW015 FEW250
      TEMPO 2310/2312 BKN015
     FM231500 17012G18KT P6SM SCT030
     FM231800 15015G22KT P6SM SCT040
     FM240300 14008KT P6SM FEW250=

USA.gov is the U.S. government's official web portal to all federal, state and local government web resources and services.